| time (UTC) | temp F | wind direction | speed knots | gust knots | rain 1hr in | rain 24hr in | rain mn in | humidity % | barometer mb |
| 20260510190004 | 84 | 307 | 0.9 | 3.5 | 0.00 | 0.00 | 0.00 | 30 | 1015.5 |
| 20260510184503 | 84 | 240 | 0.9 | 4.3 | 0.00 | 0.00 | 0.00 | 28 | 1015.6 |
| 20260510174503 | 81 | 320 | 0.9 | 3.5 | 0.00 | 0.00 | 0.00 | 34 | 1015.9 |
| 20260510173004 | 81 | 242 | 1.7 | 8.7 | 0.00 | 0.00 | 0.00 | 33 | 1015.9 |
| 20260510164504 | 81 | 227 | 0.9 | 2.6 | 0.00 | 0.00 | 0.00 | 31 | 1016.3 |
| 20260510163003 | 80 | 155 | 0.9 | 2.6 | 0.00 | 0.00 | 0.00 | 33 | 1016.4 |
| 20260510161503 | 79 | 247 | 0.9 | 3.5 | 0.00 | 0.00 | 0.00 | 35 | 1016.5 |
| 20260510160003 | 78 | 68 | 0.0 | 3.5 | 0.00 | 0.00 | 0.00 | 39 | 1016.5 |
| 20260510154504 | 77 | 34 | 1.7 | 7.0 | 0.00 | 0.00 | 0.00 | 42 | 1016.8 |
| 20260510153004 | 76 | 302 | 1.7 | 6.1 | 0.00 | 0.00 | 0.00 | 45 | 1016.9 |
| 20260510150005 | 75 | 300 | 0.9 | 4.3 | 0.00 | 0.00 | 0.00 | 48 | 1016.8 |
| 20260510144503 | 73 | 11 | 2.6 | 5.2 | 0.00 | 0.00 | 0.00 | 52 | 1017.0 |
| 20260510140005 | 70 | 29 | 0.0 | 1.7 | 0.00 | 0.00 | 0.00 | 64 | 1017.0 |
| 20260510134503 | 68 | 46 | 0.0 | 2.6 | 0.00 | 0.00 | 0.00 | 63 | 1017.1 |
| 20260510133003 | 67 | 37 | 0.0 | 1.7 | 0.00 | 0.00 | 0.00 | 69 | 1017.1 |
| 20260510131503 | 65 | 291 | 0.0 | 0.9 | 0.00 | 0.00 | 0.00 | 72 | 1017.0 |
| 20260510130003 | 64 | 313 | 0.0 | 0.9 | 0.00 | 0.00 | 0.00 | 76 | 1017.0 |
| 20260510124503 | 62 | 1 | 0.0 | 0.9 | 0.00 | 0.00 | 0.00 | 79 | 1016.9 |
| 20260510123002 | 59 | 297 | 0.0 | 0.9 | 0.00 | 0.00 | 0.00 | 84 | 1016.8 |
| 20260510121504 | 56 | 291 | 0.0 | 0.9 | 0.00 | 0.00 | 0.00 | 94 | 1016.6 |
| 20260510120003 | 54 | 343 | 0.0 | 0.0 | 0.00 | 0.00 | 0.00 | 94 | 1016.2 |
| 20260510114502 | 52 | 342 | 0.0 | 0.0 | 0.00 | 0.00 | 0.00 | 94 | 1015.9 |
| 20260510113002 | 51 | 342 | 0.0 | 0.0 | 0.00 | 0.00 | 0.00 | 93 | 1015.7 |
| 20260510111502 | 49 | 342 | 0.0 | 0.0 | 0.00 | 0.00 | 0.00 | 93 | 1015.6 |
| 20260510110005 | 49 | 342 | 0.0 | 0.0 | 0.00 | 0.00 | 0.00 | 93 | 1015.5 |
| 20260510104504 | 49 | 342 | 0.0 | 0.0 | 0.00 | 0.00 | 0.00 | 92 | 1015.3 |
| 20260510103003 | 49 | 342 | 0.0 | 0.0 | 0.00 | 0.00 | 0.00 | 92 | 1015.0 |
| 20260510093003 | 51 | 20 | 0.0 | 0.0 | 0.00 | 0.00 | 0.00 | 91 | 1014.7 |
| 20260510091503 | 51 | 20 | 0.0 | 0.0 | 0.00 | 0.00 | 0.00 | 91 | 1014.5 |
| 20260510090001 | 52 | 23 | 0.0 | 0.0 | 0.00 | 0.00 | 0.00 | 91 | 1014.4 |
| 20260510084502 | 53 | 23 | 0.0 | 0.0 | 0.00 | 0.00 | 0.00 | 91 | 1013.9 |
| 20260510083002 | 53 | 23 | 0.0 | 0.0 | 0.00 | 0.00 | 0.00 | 90 | 1013.7 |
| 20260510081502 | 54 | 23 | 0.0 | 0.0 | 0.00 | 0.00 | 0.00 | 91 | 1013.6 |
| 20260510080005 | 54 | 23 | 0.0 | 0.0 | 0.00 | 0.00 | 0.00 | 90 | 1013.5 |
| 20260510074504 | 55 | 23 | 0.0 | 0.0 | 0.00 | 0.00 | 0.00 | 89 | 1013.5 |
| 20260510073004 | 56 | 23 | 0.0 | 0.0 | 0.00 | 0.00 | 0.00 | 89 | 1013.3 |
| 20260510071504 | 57 | 22 | 0.0 | 0.9 | 0.00 | 0.00 | 0.00 | 91 | 1013.0 |
| 20260510070003 | 57 | 27 | 0.0 | 0.0 | 0.00 | 0.00 | 0.00 | 91 | 1013.1 |
| 20260510064502 | 56 | 120 | 0.0 | 0.0 | 0.00 | 0.00 | 0.00 | 90 | 1013.4 |
| 20260510063002 | 57 | 120 | 0.0 | 0.0 | 0.00 | 0.00 | 0.00 | 89 | 1013.4 |
| 20260510061502 | 57 | 120 | 0.0 | 0.0 | 0.00 | 0.00 | 0.00 | 89 | 1013.4 |
| 20260510060002 | 58 | 120 | 0.0 | 0.0 | 0.00 | 0.00 | 0.00 | 88 | 1013.4 |
| 20260510054502 | 59 | 120 | 0.0 | 0.0 | 0.00 | 0.00 | 0.00 | 88 | 1013.5 |
| 20260510053001 | 60 | 224 | 0.0 | 0.0 | 0.00 | 0.00 | 0.00 | 85 | 1013.4 |
| 20260510051502 | 61 | 276 | 0.0 | 0.9 | 0.00 | 0.00 | 0.00 | 85 | 1013.3 |
| 20260510050007 | 62 | 239 | 0.0 | 0.9 | 0.00 | 0.00 | 0.00 | 85 | 1013.4 |
| 20260510044503 | 62 | 288 | 0.0 | 0.9 | 0.00 | 0.00 | 0.00 | 84 | 1013.6 |
| 20260510043003 | 62 | 243 | 0.0 | 0.9 | 0.00 | 0.00 | 0.00 | 85 | 1013.5 |
| 20260510041502 | 61 | 271 | 0.0 | 0.9 | 0.00 | 0.00 | 0.00 | 87 | 1013.7 |
| 20260510040003 | 59 | 289 | 0.0 | 0.9 | 0.00 | 0.00 | 0.00 | 88 | 1013.6 |
| 20260510034504 | 60 | 212 | 0.0 | 0.0 | 0.00 | 0.00 | 0.00 | 88 | 1013.7 |
| 20260510033004 | 59 | 212 | 0.0 | 0.0 | 0.00 | 0.00 | 0.00 | 86 | 1013.6 |
| 20260510031503 | 61 | 212 | 0.0 | 0.0 | 0.00 | 0.00 | 0.00 | 85 | 1013.5 |
| 20260510023005 | 64 | 212 | 0.0 | 0.0 | 0.00 | 0.00 | 0.00 | 82 | 1013.1 |
| 20260510021505 | 64 | 211 | 0.0 | 0.9 | 0.00 | 0.00 | 0.00 | 81 | 1013.0 |
| 20260510020004 | 65 | 212 | 0.0 | 0.0 | 0.00 | 0.00 | 0.00 | 79 | 1013.0 |
| 20260510013004 | 66 | 207 | 0.0 | 0.9 | 0.00 | 0.00 | 0.00 | 78 | 1012.2 |
| 20260510011505 | 66 | 208 | 0.0 | 0.9 | 0.00 | 0.00 | 0.00 | 77 | 1011.9 |
| 20260510010004 | 67 | 201 | 0.0 | 0.0 | 0.00 | 0.00 | 0.00 | 76 | 1011.7 |
| 20260510004504 | 68 | 201 | 0.0 | 0.0 | 0.00 | 0.00 | 0.00 | 74 | 1011.4 |
| 20260510003003 | 69 | 195 | 0.0 | 0.0 | 0.00 | 0.00 | 0.00 | 72 | 1011.3 |
| 20260510001503 | 70 | 195 | 0.0 | 0.0 | 0.00 | 0.00 | 0.00 | 70 | 1011.2 |
| 20260510000006 | 71 | 195 | 0.0 | 0.0 | 0.00 | 0.00 | 0.00 | 67 | 1011.1 |
| 20260509234503 | 72 | 190 | 0.0 | 0.0 | 0.00 | 0.00 | 0.00 | 65 | 1010.9 |
| 20260509233004 | 72 | 192 | 0.0 | 0.9 | 0.00 | 0.00 | 0.00 | 63 | 1010.7 |
| 20260509231503 | 73 | 179 | 0.0 | 0.9 | 0.00 | 0.00 | 0.00 | 61 | 1010.6 |
| 20260509230004 | 74 | 200 | 0.0 | 1.7 | 0.00 | 0.00 | 0.00 | 60 | 1010.4 |
| 20260509224504 | 75 | 188 | 0.0 | 0.0 | 0.00 | 0.00 | 0.00 | 60 | 1010.5 |
| 20260509223003 | 75 | 184 | 0.0 | 1.7 | 0.00 | 0.00 | 0.00 | 59 | 1010.3 |
| 20260509221505 | 75 | 213 | 0.9 | 1.7 | 0.00 | 0.00 | 0.00 | 60 | 1010.5 |
| 20260509220006 | 75 | 196 | 0.9 | 2.6 | 0.00 | 0.00 | 0.00 | 58 | 1010.2 |
| 20260509213003 | 74 | 222 | 0.9 | 3.5 | 0.00 | 0.00 | 0.00 | 58 | 1010.3 |
| 20260509204502 | 74 | 171 | 0.0 | 1.7 | 0.00 | 0.00 | 0.00 | 56 | 1010.0 |
| 20260509203002 | 75 | 191 | 0.9 | 2.6 | 0.00 | 0.00 | 0.00 | 54 | 1009.8 |
| 20260509201503 | 75 | 214 | 0.9 | 3.5 | 0.00 | 0.00 | 0.00 | 55 | 1010.1 |
| 20260509200006 | 75 | 155 | 0.9 | 3.5 | 0.00 | 0.00 | 0.00 | 53 | 1010.1 |
| 20260509194504 | 75 | 168 | 1.7 | 7.0 | 0.00 | 0.00 | 0.00 | 53 | 1010.3 |
| 20260509193004 | 75 | 303 | 1.7 | 4.3 | 0.00 | 0.00 | 0.00 | 51 | 1010.4 |